Port O' Connor, Texas
Current Conditions -  °F | °C
As of 9:53 AM on Sunday 23 Nov 2014 (Local Time) from KRKP Reporting Station
NA  
Wind Chill: 66°   Ceiling: NA
Heat Index: 66°   Visibility: 10mi
Dew Point: 59°   Wind: 7mph
Humidity: 78%   Direction: 240°WSW
Pressure: 29.74"   Gusts: NA
Location:  28.2231°N, 96.6507°W
Report Text: KRKP 231553Z AUTO 24006KT 10SM 19/15 A2974 RMK AO2 SLP074 T01890150 $
Loading
Personal Weather Stations






























Interactive Weather Map New forecast layout! Learn more

10-Day Weather Forecast

Advertisements
Track Severe Weather on mobile